createdAt,value
2023-01-11T00:00:46.695Z,30.05
2023-01-11T00:03:14.916Z,30.65
2023-01-11T00:05:43.488Z,30.35
2023-01-11T00:08:10.780Z,33.08
2023-01-11T00:10:37.568Z,30.83
2023-01-11T00:13:04.896Z,28.98
2023-01-11T00:15:31.386Z,27.90
2023-01-11T00:17:57.906Z,28.20
2023-01-11T00:20:25.311Z,26.08
2023-01-11T00:22:52.199Z,34.88
2023-01-11T00:25:18.719Z,29.73
2023-01-11T00:27:47.165Z,32.13
2023-01-11T00:30:14.109Z,29.48
2023-01-11T00:32:40.731Z,30.27
2023-01-11T00:35:07.926Z,35.60
2023-01-11T00:37:34.424Z,29.85
2023-01-11T00:40:00.875Z,29.23
2023-01-11T00:42:46.158Z,33.55
2023-01-11T00:45:31.005Z,30.48
2023-01-11T00:47:57.554Z,29.75
2023-01-11T00:50:25.427Z,30.55
2023-01-11T00:52:52.040Z,29.75
2023-01-11T00:55:19.019Z,30.70
2023-01-11T00:57:45.463Z,33.55
2023-01-11T01:00:12.872Z,31.90
2023-01-11T01:02:39.864Z,30.13
2023-01-11T01:05:06.962Z,34.00
2023-01-11T01:07:33.578Z,28.63
2023-01-11T01:10:00.029Z,28.70
2023-01-11T01:12:44.720Z,29.33
2023-01-11T01:15:11.501Z,30.25
2023-01-11T01:17:38.216Z,27.00
2023-01-11T01:20:05.977Z,28.95
2023-01-11T01:22:32.472Z,28.80
2023-01-11T01:24:58.990Z,27.05
2023-01-11T01:27:25.676Z,29.83
2023-01-11T01:29:52.175Z,27.23
2023-01-11T01:32:18.605Z,27.85
2023-01-11T01:34:45.063Z,27.10
2023-01-11T01:37:11.659Z,26.30
2023-01-11T01:39:38.320Z,27.50
2023-01-11T01:42:06.021Z,28.25
2023-01-11T01:44:54.278Z,27.55
2023-01-11T01:47:29.365Z,27.25
2023-01-11T01:49:59.093Z,27.05
2023-01-11T01:52:29.146Z,27.38
2023-01-11T01:55:01.441Z,27.85
2023-01-11T01:57:32.024Z,27.48
2023-01-11T02:00:02.872Z,28.17
2023-01-11T02:02:29.379Z,27.25
2023-01-11T02:04:57.457Z,26.25
2023-01-11T02:07:31.749Z,25.95
2023-01-11T02:10:04.643Z,24.65
2023-01-11T02:12:39.037Z,24.45
2023-01-11T02:15:07.199Z,23.80
2023-01-11T02:17:33.601Z,24.40
2023-01-11T02:20:12.423Z,24.40
2023-01-11T02:23:07.656Z,24.35
2023-01-11T02:26:23.483Z,24.38
2023-01-11T02:29:28.280Z,24.52
2023-01-11T02:32:07.045Z,24.63
2023-01-11T02:34:45.323Z,24.65
2023-01-11T02:37:26.195Z,23.60
2023-01-11T02:40:10.871Z,23.92
2023-01-11T02:42:57.158Z,24.15
2023-01-11T02:45:47.198Z,23.45
2023-01-11T02:48:36.663Z,24.08
2023-01-11T02:51:12.485Z,24.37
2023-01-11T02:53:57.980Z,24.27
2023-01-11T02:56:32.307Z,23.88
2023-01-11T02:59:00.920Z,23.55
2023-01-11T03:01:27.524Z,22.20
2023-01-11T03:03:54.540Z,21.95
2023-01-11T03:06:26.012Z,23.60
2023-01-11T03:09:12.236Z,22.90
2023-01-11T03:12:06.555Z,21.85
2023-01-11T03:14:46.172Z,22.70
2023-01-11T03:17:31.929Z,23.65
2023-01-11T03:20:08.847Z,23.48
2023-01-11T03:22:54.050Z,22.70
2023-01-11T03:25:28.724Z,22.00
2023-01-11T03:28:16.535Z,21.17
2023-01-11T03:31:02.303Z,21.17
2023-01-11T03:33:39.286Z,21.00
2023-01-11T03:36:23.299Z,21.45
2023-01-11T03:39:03.278Z,22.73
2023-01-11T03:41:34.962Z,23.60
2023-01-11T03:44:05.798Z,24.08
2023-01-11T03:46:36.981Z,22.42
2023-01-11T03:49:10.300Z,23.08
2023-01-11T03:51:43.403Z,23.15
2023-01-11T03:54:14.139Z,23.05
2023-01-11T03:57:05.004Z,23.05
2023-01-11T03:59:32.948Z,23.30
2023-01-11T04:02:00.084Z,22.45
2023-01-11T04:04:27.252Z,22.70
2023-01-11T04:06:53.946Z,23.20
2023-01-11T04:09:20.514Z,23.10
2023-01-11T04:11:47.028Z,22.92
2023-01-11T04:14:13.416Z,23.10
2023-01-11T04:16:39.873Z,23.15
2023-01-11T04:19:06.392Z,22.60
2023-01-11T04:21:33.091Z,23.10
2023-01-11T04:23:59.746Z,22.38
2023-01-11T04:26:26.146Z,22.85
2023-01-11T04:28:54.315Z,23.52
2023-01-11T04:31:21.291Z,22.95
2023-01-11T04:33:47.821Z,22.45
2023-01-11T04:36:14.321Z,24.55
2023-01-11T04:38:40.724Z,23.83
2023-01-11T04:41:26.116Z,24.60
2023-01-11T04:43:56.500Z,24.05
2023-01-11T04:46:23.930Z,23.95
2023-01-11T04:48:51.370Z,23.27
2023-01-11T04:51:17.895Z,24.20
2023-01-11T04:53:47.208Z,23.45
2023-01-11T04:56:13.736Z,24.27
2023-01-11T04:58:40.177Z,23.20
2023-01-11T05:01:12.077Z,23.55
2023-01-11T05:03:38.722Z,23.23
2023-01-11T05:06:05.910Z,22.88
2023-01-11T05:08:33.082Z,22.55
2023-01-11T05:11:02.157Z,21.98
2023-01-11T05:13:45.092Z,21.98
2023-01-11T05:16:17.616Z,21.77
2023-01-11T05:18:45.371Z,21.55
2023-01-11T05:21:13.558Z,20.52
2023-01-11T05:23:41.319Z,21.00
2023-01-11T05:26:10.749Z,20.02
2023-01-11T05:28:37.422Z,19.45
2023-01-11T05:31:03.918Z,19.95
2023-01-11T05:33:31.060Z,19.05
2023-01-11T05:36:02.266Z,19.00
2023-01-11T05:38:29.336Z,20.00
2023-01-11T05:40:58.057Z,20.75
2023-01-11T05:43:24.773Z,20.05
2023-01-11T05:45:51.530Z,20.25
2023-01-11T05:48:18.460Z,20.10
2023-01-11T05:50:49.391Z,20.25
2023-01-11T05:53:15.837Z,20.33
2023-01-11T05:55:53.370Z,19.60
2023-01-11T05:58:19.831Z,19.27
2023-01-11T06:00:51.006Z,18.90
2023-01-11T06:03:17.586Z,18.85
2023-01-11T06:05:45.938Z,18.98
2023-01-11T06:08:13.396Z,18.83
2023-01-11T06:10:39.991Z,19.30
2023-01-11T06:13:28.201Z,19.67
2023-01-11T06:16:00.205Z,20.30
2023-01-11T06:18:28.070Z,20.30
2023-01-11T06:20:55.285Z,20.80
2023-01-11T06:23:22.855Z,21.33
2023-01-11T06:25:49.617Z,20.23
2023-01-11T06:28:16.297Z,20.27
2023-01-11T06:30:43.113Z,21.05
2023-01-11T06:33:09.609Z,20.52
2023-01-11T06:35:40.915Z,19.90
2023-01-11T06:38:10.719Z,21.15
2023-01-11T06:40:38.964Z,23.10
2023-01-11T06:43:05.970Z,23.15
2023-01-11T06:45:32.755Z,23.63
2023-01-11T06:47:59.805Z,23.95
2023-01-11T06:50:26.762Z,23.45
2023-01-11T06:53:03.610Z,23.75
2023-01-11T06:55:30.719Z,24.60
2023-01-11T06:57:57.393Z,24.92
2023-01-11T07:00:24.754Z,24.58
2023-01-11T07:02:51.177Z,25.98
2023-01-11T07:05:19.344Z,25.45
2023-01-11T07:07:46.249Z,26.08
2023-01-11T07:10:15.863Z,26.38
2023-01-11T07:12:42.658Z,27.40
2023-01-11T07:15:10.458Z,27.27
2023-01-11T07:17:37.536Z,29.00
2023-01-11T07:20:05.225Z,27.77
2023-01-11T07:22:35.326Z,26.98
2023-01-11T07:25:02.774Z,28.33
2023-01-11T07:27:29.219Z,28.73
2023-01-11T07:29:55.761Z,29.33
2023-01-11T07:32:22.248Z,28.45
2023-01-11T07:34:48.866Z,28.48
2023-01-11T07:37:29.387Z,28.65
2023-01-11T07:39:56.343Z,29.10
2023-01-11T07:42:41.220Z,30.27
2023-01-11T07:45:08.206Z,29.73
2023-01-11T07:47:34.646Z,28.73
2023-01-11T07:50:01.080Z,28.67
2023-01-11T07:52:27.499Z,27.95
2023-01-11T07:54:53.971Z,28.27
2023-01-11T07:57:20.375Z,28.52
2023-01-11T07:59:46.780Z,29.05
2023-01-11T08:02:13.232Z,28.08
2023-01-11T08:04:39.628Z,28.00
2023-01-11T08:07:06.186Z,27.92
2023-01-11T08:09:32.647Z,28.90
2023-01-11T08:12:17.664Z,29.13
2023-01-11T08:14:44.140Z,28.85
2023-01-11T08:17:15.827Z,29.20
2023-01-11T08:19:43.257Z,29.30
2023-01-11T08:22:10.445Z,28.90
2023-01-11T08:24:37.219Z,28.42
2023-01-11T08:27:05.205Z,27.55
2023-01-11T08:29:32.429Z,28.30
2023-01-11T08:31:59.465Z,28.67
2023-01-11T08:34:27.636Z,29.40
2023-01-11T08:36:54.134Z,29.55
2023-01-11T08:39:20.652Z,29.15
2023-01-11T08:41:47.226Z,28.55
2023-01-11T08:44:15.055Z,29.30
2023-01-11T08:46:41.595Z,29.00
2023-01-11T08:49:12.319Z,29.20
2023-01-11T08:51:42.248Z,28.15
2023-01-11T08:54:14.069Z,28.60
2023-01-11T08:56:41.007Z,31.38
2023-01-11T08:59:07.409Z,29.65
2023-01-11T09:01:33.882Z,29.05
2023-01-11T09:04:00.358Z,30.08
2023-01-11T09:06:27.074Z,30.67
2023-01-11T09:08:53.636Z,30.58
2023-01-11T09:11:40.407Z,30.63
2023-01-11T09:14:07.194Z,31.13
2023-01-11T09:16:33.910Z,31.10
2023-01-11T09:19:00.392Z,30.20
2023-01-11T09:21:27.193Z,30.70
2023-01-11T09:23:53.671Z,29.95
2023-01-11T09:26:20.145Z,29.17
2023-01-11T09:28:46.647Z,29.83
2023-01-11T09:31:13.156Z,28.77
2023-01-11T09:33:39.725Z,28.88
2023-01-11T09:36:07.495Z,28.73
2023-01-11T09:38:34.116Z,30.17
2023-01-11T09:41:23.133Z,30.67
2023-01-11T09:44:20.262Z,30.38
2023-01-11T09:46:56.065Z,31.05
2023-01-11T09:49:28.134Z,29.73
2023-01-11T09:52:23.974Z,31.10
2023-01-11T09:54:51.328Z,29.77
2023-01-11T09:57:37.551Z,29.50
2023-01-11T10:00:12.721Z,29.85
2023-01-11T10:03:05.362Z,30.10
2023-01-11T10:05:46.036Z,29.10
2023-01-11T10:18:26.523Z,29.60
2023-01-11T10:18:28.361Z,29.10
2023-01-11T10:21:13.292Z,27.25
2023-01-11T10:24:03.024Z,27.67
2023-01-11T10:26:37.379Z,27.20
2023-01-11T10:29:53.454Z,26.83
2023-01-11T10:32:55.703Z,29.45
2023-01-11T10:36:02.388Z,27.85
2023-01-11T10:38:47.466Z,26.55
2023-01-11T10:41:26.432Z,27.15
2023-01-11T10:44:10.510Z,27.65
2023-01-11T10:46:43.411Z,27.35
2023-01-11T10:49:25.785Z,28.90
2023-01-11T10:51:55.654Z,26.13
2023-01-11T10:54:33.203Z,25.70
2023-01-11T10:57:02.759Z,39.13
2023-01-11T10:59:37.817Z,44.22
2023-01-11T11:02:16.535Z,28.52
2023-01-11T11:05:07.712Z,26.88
2023-01-11T11:07:40.265Z,24.48
2023-01-11T11:10:18.943Z,22.77
2023-01-11T11:13:06.701Z,23.05
2023-01-11T11:15:56.429Z,22.83
2023-01-11T11:18:23.649Z,21.88
2023-01-11T11:20:50.453Z,22.17
2023-01-11T11:23:21.537Z,21.58
2023-01-11T11:25:57.403Z,25.75
2023-01-11T11:28:30.982Z,21.83
2023-01-11T11:31:00.520Z,31.95
2023-01-11T11:33:33.920Z,21.67
2023-01-11T11:36:12.343Z,23.77
2023-01-11T11:38:59.941Z,27.33
2023-01-11T11:41:26.374Z,21.30
2023-01-11T11:44:14.508Z,24.80
2023-01-11T11:46:41.115Z,26.10
2023-01-11T11:49:12.803Z,22.05
2023-01-11T11:51:41.146Z,23.65
2023-01-11T11:54:30.237Z,21.50
2023-01-11T11:56:59.165Z,23.65
2023-01-11T11:59:29.868Z,24.38
2023-01-11T12:02:03.464Z,24.33
2023-01-11T12:04:57.612Z,19.85
2023-01-11T12:07:38.076Z,18.63
2023-01-11T12:10:13.434Z,23.77
2023-01-11T12:12:54.977Z,18.05
2023-01-11T12:15:25.541Z,19.55
2023-01-11T12:17:52.496Z,22.85
2023-01-11T12:20:21.609Z,24.30
2023-01-11T12:23:07.179Z,19.50
2023-01-11T12:25:40.560Z,20.70
2023-01-11T12:28:52.072Z,24.27
2023-01-11T12:31:40.321Z,18.92
2023-01-11T12:34:25.448Z,23.13
2023-01-11T12:37:02.495Z,18.20
2023-01-11T12:39:58.117Z,19.42
2023-01-11T12:42:49.545Z,19.65
2023-01-11T12:45:40.141Z,27.00
2023-01-11T12:48:12.627Z,21.15
2023-01-11T12:51:09.276Z,23.60
2023-01-11T12:54:09.801Z,17.48
2023-01-11T12:56:51.159Z,18.10
2023-01-11T12:59:28.576Z,24.77
2023-01-11T13:02:28.854Z,21.77
2023-01-11T13:08:03.452Z,25.58
2023-01-11T13:10:39.224Z,26.95
2023-01-11T13:13:14.806Z,18.50
2023-01-11T13:16:14.191Z,20.33
2023-01-11T13:19:09.985Z,16.10
2023-01-11T13:21:44.738Z,18.67
2023-01-11T13:24:16.414Z,26.63
2023-01-11T13:26:45.764Z,22.08
2023-01-11T13:29:29.161Z,25.87
2023-01-11T13:31:59.437Z,22.17
2023-01-11T13:37:15.455Z,23.25
2023-01-11T13:39:47.585Z,20.48
2023-01-11T13:42:38.473Z,21.23
2023-01-11T13:45:26.714Z,24.00
2023-01-11T13:48:01.750Z,24.60
2023-01-11T13:50:32.797Z,19.85
2023-01-11T13:53:11.449Z,18.48
2023-01-11T13:55:40.439Z,20.38
2023-01-11T13:58:16.392Z,23.00
2023-01-11T14:00:56.746Z,24.00
2023-01-11T14:03:41.657Z,18.77
2023-01-11T14:06:23.155Z,26.25
2023-01-11T14:08:52.181Z,19.80
2023-01-11T14:11:24.447Z,23.45
2023-01-11T14:14:17.763Z,23.75
2023-01-11T14:16:56.541Z,19.60
2023-01-11T14:19:32.213Z,16.33
2023-01-11T14:22:31.047Z,21.33
2023-01-11T14:25:00.797Z,23.38
2023-01-11T14:27:33.296Z,27.08
2023-01-11T14:30:11.555Z,26.48
2023-01-11T14:32:56.669Z,28.63
2023-01-11T14:35:25.910Z,25.10
2023-01-11T14:37:55.478Z,27.45
2023-01-11T14:40:33.666Z,23.60
2023-01-11T14:43:25.923Z,25.95
2023-01-11T14:46:24.130Z,20.50
2023-01-11T14:49:10.737Z,16.65
2023-01-11T14:52:03.236Z,20.35
2023-01-11T14:54:40.116Z,22.23
2023-01-11T14:57:06.577Z,17.65
2023-01-11T14:59:40.335Z,24.60
2023-01-11T15:02:23.129Z,27.60
2023-01-11T15:04:52.556Z,18.85
2023-01-11T15:07:35.277Z,19.50
2023-01-11T15:10:04.660Z,18.25
2023-01-11T15:12:39.327Z,19.10
2023-01-11T15:15:54.795Z,23.40
2023-01-11T15:18:26.760Z,24.77
2023-01-11T15:21:06.186Z,15.77
2023-01-11T15:23:38.298Z,20.47
2023-01-11T15:26:09.432Z,20.35
2023-01-11T15:28:50.429Z,22.45
2023-01-11T15:31:39.101Z,27.73
2023-01-11T15:34:28.840Z,38.05
2023-01-11T15:37:02.246Z,59.10
2023-01-11T15:39:37.759Z,29.05
2023-01-11T15:42:16.651Z,29.40
2023-01-11T15:44:55.038Z,16.85
2023-01-11T15:47:36.495Z,29.38
2023-01-11T15:50:06.255Z,37.47
2023-01-11T15:52:32.629Z,30.13
2023-01-11T15:55:25.620Z,22.23
2023-01-11T15:57:54.978Z,25.88
2023-01-11T16:00:36.752Z,40.33
2023-01-11T16:03:17.385Z,23.38
2023-01-11T16:06:24.026Z,49.90
2023-01-11T16:09:03.773Z,22.05
2023-01-11T16:11:51.253Z,28.60
2023-01-11T16:14:56.621Z,27.75
2023-01-11T16:17:24.878Z,46.05
2023-01-11T16:19:56.747Z,28.75
2023-01-11T16:22:26.402Z,33.80
2023-01-11T16:24:56.915Z,36.03
2023-01-11T16:27:29.554Z,31.90
2023-01-11T16:29:56.662Z,42.58
2023-01-11T16:32:32.484Z,31.58
2023-01-11T16:35:15.189Z,30.58
2023-01-11T16:37:49.425Z,32.67
2023-01-11T16:40:29.892Z,31.20
2023-01-11T16:43:05.601Z,23.23
2023-01-11T16:45:47.086Z,25.90
2023-01-11T16:48:24.905Z,52.65
2023-01-11T16:50:58.039Z,45.47
2023-01-11T16:53:26.633Z,37.67
2023-01-11T16:56:05.640Z,46.28
2023-01-11T16:58:35.104Z,54.90
2023-01-11T17:01:03.392Z,56.83
2023-01-11T17:03:35.689Z,52.38
2023-01-11T17:06:15.218Z,54.35
2023-01-11T17:08:47.862Z,48.05
2023-01-11T17:11:41.600Z,53.72
2023-01-11T17:14:41.928Z,53.05
2023-01-11T17:19:43.283Z,59.53
2023-01-11T17:22:17.772Z,50.30
2023-01-11T17:24:53.552Z,49.13
2023-01-11T17:27:25.712Z,41.38
2023-01-11T17:29:54.878Z,36.90
2023-01-11T17:32:29.613Z,52.58
2023-01-11T17:34:56.567Z,54.33
2023-01-11T17:37:24.190Z,79.00
2023-01-11T17:39:54.930Z,40.47
2023-01-11T17:42:41.235Z,46.97
2023-01-11T17:45:20.983Z,39.47
2023-01-11T17:47:53.686Z,34.10
2023-01-11T17:50:39.666Z,28.73
2023-01-11T17:53:16.029Z,32.08
2023-01-11T17:55:53.031Z,27.17
2023-01-11T17:58:28.711Z,33.15
2023-01-11T18:01:04.440Z,35.72
2023-01-11T18:03:39.023Z,43.65
2023-01-11T18:06:14.246Z,31.48
2023-01-11T18:08:46.866Z,33.75
2023-01-11T18:11:28.738Z,31.52
2023-01-11T18:13:59.755Z,37.58
2023-01-11T18:16:26.848Z,37.15
2023-01-11T18:18:54.977Z,38.60
2023-01-11T18:21:39.987Z,33.97
2023-01-11T18:24:09.696Z,32.22
2023-01-11T18:26:45.549Z,34.20
2023-01-11T18:29:42.291Z,27.38
2023-01-11T18:32:10.954Z,44.03
2023-01-11T18:34:37.408Z,33.58
2023-01-11T18:37:07.687Z,41.45
2023-01-11T18:42:08.559Z,40.03
2023-01-11T18:44:43.755Z,26.60
2023-01-11T18:47:19.468Z,64.10
2023-01-11T18:49:46.353Z,32.00
2023-01-11T18:52:13.294Z,31.75
2023-01-11T18:54:41.167Z,34.60
2023-01-11T18:57:08.282Z,39.22
2023-01-11T18:59:35.181Z,36.83
2023-01-11T19:02:16.921Z,28.67
2023-01-11T19:04:43.975Z,40.30
2023-01-11T19:07:11.448Z,32.80
2023-01-11T19:09:37.852Z,46.50
2023-01-11T19:12:04.444Z,29.98
2023-01-11T19:14:30.859Z,36.75
2023-01-11T19:16:57.298Z,38.58
2023-01-11T19:19:23.737Z,37.13
2023-01-11T19:21:50.520Z,39.63
2023-01-11T19:24:16.920Z,34.58
2023-01-11T19:26:43.395Z,25.73
2023-01-11T19:29:09.894Z,42.67
2023-01-11T19:31:36.356Z,33.10
2023-01-11T19:34:02.808Z,41.92
2023-01-11T19:36:32.093Z,48.55
2023-01-11T19:38:58.463Z,30.43
2023-01-11T19:41:24.851Z,35.13
2023-01-11T19:43:51.344Z,41.55
2023-01-11T19:46:30.609Z,38.22
2023-01-11T19:48:58.274Z,33.65
2023-01-11T19:51:24.684Z,33.38
2023-01-11T19:53:53.841Z,39.25
2023-01-11T19:56:20.278Z,22.38
2023-01-11T19:58:46.684Z,35.25
2023-01-11T20:01:13.351Z,36.30
2023-01-11T20:03:41.543Z,41.55
2023-01-11T20:06:08.854Z,35.35
2023-01-11T20:08:38.483Z,43.22
2023-01-11T20:11:09.551Z,32.70
2023-01-11T20:13:36.361Z,34.60
2023-01-11T20:16:10.774Z,35.58
2023-01-11T20:18:37.276Z,37.03
2023-01-11T20:21:04.247Z,35.92
2023-01-11T20:23:31.792Z,38.10
2023-01-11T20:25:59.483Z,33.25
2023-01-11T20:28:26.453Z,36.35
2023-01-11T20:30:53.751Z,37.60
2023-01-11T20:33:20.615Z,37.45
2023-01-11T20:35:48.587Z,34.30
2023-01-11T20:38:15.152Z,49.33
2023-01-11T20:40:42.182Z,41.30
2023-01-11T20:43:10.675Z,35.97
2023-01-11T20:45:39.837Z,45.70
2023-01-11T20:48:07.300Z,37.33
2023-01-11T20:50:35.511Z,41.05
2023-01-11T20:53:02.980Z,41.75
2023-01-11T20:55:29.519Z,29.10
2023-01-11T20:57:56.069Z,34.80
2023-01-11T21:00:22.587Z,45.17
2023-01-11T21:02:50.421Z,34.13
2023-01-11T21:05:17.040Z,37.88
2023-01-11T21:07:43.479Z,34.80
2023-01-11T21:10:10.468Z,31.75
2023-01-11T21:15:03.709Z,35.67
2023-01-11T21:17:30.184Z,36.13
2023-01-11T21:19:56.585Z,33.10
2023-01-11T21:22:23.022Z,38.20
2023-01-11T21:24:49.506Z,31.60
2023-01-11T21:27:16.009Z,33.33
2023-01-11T21:29:42.448Z,36.65
2023-01-11T21:32:08.954Z,33.22
2023-01-11T21:34:35.408Z,32.25
2023-01-11T21:37:01.806Z,36.30
2023-01-11T21:39:28.273Z,30.60
2023-01-11T21:42:01.175Z,30.20
2023-01-11T21:44:33.405Z,28.00
2023-01-11T21:47:01.948Z,29.50
2023-01-11T21:49:28.444Z,32.05
2023-01-11T21:51:54.851Z,38.28
2023-01-11T21:54:21.470Z,42.15
2023-01-11T21:56:49.138Z,37.33
2023-01-11T21:59:16.474Z,37.33
2023-01-11T22:01:45.355Z,31.35
2023-01-11T22:04:14.706Z,36.45
2023-01-11T22:06:43.729Z,34.92
2023-01-11T22:09:11.646Z,35.65
2023-01-11T22:11:39.237Z,39.92
2023-01-11T22:14:06.733Z,45.85
2023-01-11T22:16:34.564Z,41.03
2023-01-11T22:19:02.176Z,33.25
2023-01-11T22:21:29.294Z,28.77
2023-01-11T22:23:57.741Z,27.30
2023-01-11T22:26:25.445Z,26.60
2023-01-11T22:29:12.694Z,34.45
2023-01-11T22:31:45.234Z,38.58
2023-01-11T22:34:13.562Z,43.17
2023-01-11T22:36:40.756Z,28.45
2023-01-11T22:39:07.510Z,34.00
2023-01-11T22:41:33.989Z,42.80
2023-01-11T22:44:00.504Z,35.10
2023-01-11T22:46:27.974Z,49.05
2023-01-11T22:48:54.459Z,36.33
2023-01-11T22:51:23.522Z,41.88
2023-01-11T22:53:51.618Z,28.92
2023-01-11T22:56:19.882Z,31.88
2023-01-11T22:58:52.236Z,35.50
2023-01-11T23:01:22.729Z,32.03
2023-01-11T23:03:49.996Z,33.05
2023-01-11T23:06:22.743Z,33.70
2023-01-11T23:08:49.213Z,39.20
2023-01-11T23:11:37.774Z,31.98
2023-01-11T23:14:05.714Z,38.92
2023-01-11T23:16:32.861Z,37.08
2023-01-11T23:19:00.142Z,35.70
2023-01-11T23:21:27.696Z,39.92
2023-01-11T23:23:54.309Z,40.50
2023-01-11T23:26:21.438Z,32.88
2023-01-11T23:28:49.763Z,38.47
2023-01-11T23:31:19.640Z,38.03
2023-01-11T23:33:48.690Z,42.95
2023-01-11T23:36:17.148Z,30.55
2023-01-11T23:38:43.566Z,33.47
2023-01-11T23:41:30.955Z,38.53
2023-01-11T23:43:57.431Z,30.38
2023-01-11T23:46:43.372Z,26.17
2023-01-11T23:49:11.142Z,33.75
2023-01-11T23:51:38.105Z,26.42
2023-01-11T23:54:05.538Z,29.50
2023-01-11T23:56:33.355Z,31.10
2023-01-11T23:59:00.407Z,34.72
